Hambleton, West Virginia
Current Conditions -  °F | °C
As of 2:51 PM on Friday 19 Dec 2014 (Local Time) from KEKN Reporting Station
Overcast Overcast  
Wind Chill: 19°   Ceiling: 1500
Heat Index: 26°   Visibility: 10mi
Dew Point: 21°   Wind: 6mph
Humidity: 81%   Direction: 280°W
Pressure: 30.18"   Gusts: NA
Location:  39.08°N, 79.65°W
Report Text: KEKN 191951Z AUTO 28005KT 10SM OVC015 M03/M06 A3018 RMK AO2 SLP251 T10331061 TSNO $
Loading
Personal Weather Stations






























Interactive Weather Map New forecast layout! Learn more

10-Day Weather Forecast

Advertisements
Track Severe Weather on mobile